Time;durP1;ratioP1;P1;durP2;ratioP2;P2;SDS_P1;SDS_P2;PMS_P1;PMS_P2;Temp;Humidity;BMP_temperature;BMP_pressure;BME280_temperature;BME280_humidity;BME280_pressure;Samples;Min_cycle;Max_cycle;Signal;HPM_P1;HPM_P2
2022/09/19 00:00:40;;;;;;;11.68;3.00;;;10.40;99.90;;;;;;5044642;28;20041;-34
2022/09/19 00:03:06;;;;;;;5.10;1.40;;;10.50;99.90;;;;;;5044909;28;20104;-36
2022/09/19 00:05:31;;;;;;;10.05;2.45;;;10.50;99.90;;;;;;5044785;28;20104;-34
2022/09/19 00:07:57;;;;;;;12.27;1.55;;;10.50;99.90;;;;;;5044332;28;20104;-34
2022/09/19 00:10:22;;;;;;;11.25;1.92;;;10.50;99.90;;;;;;5044263;28;20054;-34
2022/09/19 00:12:48;;;;;;;6.18;1.42;;;10.50;99.90;;;;;;5044923;28;20582;-34
2022/09/19 00:15:13;;;;;;;10.05;1.73;;;10.50;99.90;;;;;;5043439;28;20028;-34
2022/09/19 00:17:39;;;;;;;11.25;1.70;;;10.50;99.90;;;;;;5044872;28;20043;-33
2022/09/19 00:20:06;;;;;;;7.85;1.90;;;10.50;99.90;;;;;;5044493;28;20033;-34
2022/09/19 00:22:32;;;;;;;8.85;2.00;;;10.50;99.90;;;;;;5044781;28;20041;-35
2022/09/19 00:24:58;;;;;;;6.25;1.42;;;10.50;99.90;;;;;;5044333;28;20365;-35
2022/09/19 00:27:26;;;;;;;8.35;1.50;;;10.50;99.90;;;;;;5044154;28;20063;-35
2022/09/19 00:29:52;;;;;;;11.70;1.83;;;10.50;99.90;;;;;;5048589;28;20047;-35
2022/09/19 00:32:19;;;;;;;6.72;1.52;;;10.50;99.90;;;;;;5048776;28;20269;-35
2022/09/19 00:34:50;;;;;;;5.80;1.48;;;10.50;99.90;;;;;;5048185;28;20106;-35
2022/09/19 00:37:18;;;;;;;8.27;1.40;;;10.50;99.90;;;;;;5048297;28;20024;-35
2022/09/19 00:39:44;;;;;;;10.18;1.92;;;10.50;99.90;;;;;;5049101;28;20100;-36
2022/09/19 00:42:19;;;;;;;6.32;1.30;;;10.60;99.90;;;;;;5048447;28;20480;-35
2022/09/19 00:44:45;;;;;;;10.35;1.58;;;10.60;99.90;;;;;;5048863;28;20064;-35
2022/09/19 00:47:14;;;;;;;5.82;1.30;;;10.60;99.90;;;;;;5049228;28;20133;-35
2022/09/19 00:49:44;;;;;;;9.52;2.00;;;10.60;99.90;;;;;;5048203;28;20021;-34
2022/09/19 00:52:19;;;;;;;11.77;1.70;;;10.60;99.90;;;;;;5037262;28;20029;-34
2022/09/19 00:54:46;;;;;;;10.48;2.08;;;10.60;99.90;;;;;;5048625;28;20024;-35
2022/09/19 00:57:14;;;;;;;6.57;1.50;;;10.70;99.90;;;;;;5046352;28;20104;-35
2022/09/19 00:59:43;;;;;;;7.03;2.08;;;10.70;99.90;;;;;;5037927;28;20071;-34
2022/09/19 01:02:09;;;;;;;10.57;1.73;;;10.70;99.90;;;;;;5046921;28;20043;-34
2022/09/19 01:04:35;;;;;;;10.25;1.58;;;10.70;99.90;;;;;;5047401;28;20017;-35
2022/09/19 01:07:23;;;;;;;6.13;1.40;;;10.70;99.90;;;;;;5048169;28;20071;-35
2022/09/19 01:10:13;;;;;;;6.57;1.50;;;10.70;99.90;;;;;;5047599;28;20032;-35
2022/09/19 01:12:54;;;;;;;8.07;1.45;;;10.80;99.90;;;;;;5045877;28;20025;-35
2022/09/19 01:15:28;;;;;;;6.90;1.30;;;10.80;99.90;;;;;;5047662;28;20060;-35
2022/09/19 01:17:59;;;;;;;8.27;1.52;;;10.80;99.90;;;;;;5046763;28;20420;-35
2022/09/19 01:21:37;;;;;;;6.15;1.33;;;10.80;99.90;;;;;;5046838;28;20695;-35
2022/09/19 01:24:17;;;;;;;6.70;1.40;;;10.80;99.90;;;;;;5041028;28;20029;-35
2022/09/19 01:27:26;;;;;;;7.15;1.40;;;10.80;99.90;;;;;;5037074;28;20064;-36
2022/09/19 01:30:02;;;;;;;9.50;1.90;;;10.80;99.90;;;;;;5028184;28;20032;-35
2022/09/19 01:32:42;;;;;;;7.35;1.73;;;10.80;99.90;;;;;;5045658;28;20017;-33
2022/09/19 01:35:12;;;;;;;6.90;1.30;;;10.90;99.90;;;;;;5046917;28;20410;-33
2022/09/19 01:37:51;;;;;;;6.80;1.48;;;10.90;99.90;;;;;;5046523;28;20021;-34
2022/09/19 01:40:18;;;;;;;5.88;1.15;;;11.00;99.90;;;;;;5046099;28;20036;-33
2022/09/19 01:42:57;;;;;;;7.05;1.30;;;11.00;99.90;;;;;;5047534;28;20055;-34
2022/09/19 01:45:38;;;;;;;7.05;1.52;;;11.00;99.90;;;;;;5026697;28;20033;-34
2022/09/19 01:48:26;;;;;;;8.65;1.75;;;11.00;99.90;;;;;;5044504;28;20036;-34
2022/09/19 01:50:57;;;;;;;8.15;1.42;;;11.00;99.90;;;;;;5046741;28;20522;-34
2022/09/19 01:53:58;;;;;;;10.32;1.83;;;11.00;99.90;;;;;;5045864;28;20025;-34
2022/09/19 01:56:36;;;;;;;6.13;1.70;;;11.00;99.90;;;;;;5046705;28;20025;-34
2022/09/19 01:59:20;;;;;;;7.63;1.55;;;10.90;99.90;;;;;;5044136;28;20049;-34
2022/09/19 02:02:10;;;;;;;8.20;1.60;;;10.90;99.90;;;;;;5046647;28;20152;-33
2022/09/19 02:04:47;;;;;;;7.63;1.50;;;10.80;99.90;;;;;;5036427;28;20056;-35
2022/09/19 02:07:20;;;;;;;11.05;2.47;;;10.80;99.90;;;;;;5045703;28;20017;-35
2022/09/19 02:10:03;;;;;;;9.60;1.50;;;10.80;99.90;;;;;;5036761;28;20037;-34
2022/09/19 02:12:32;;;;;;;6.75;1.52;;;10.80;99.90;;;;;;5045902;28;20099;-34
2022/09/19 02:15:00;;;;;;;8.23;1.50;;;10.90;99.90;;;;;;5046189;28;20255;-35
2022/09/19 02:17:33;;;;;;;10.55;1.45;;;10.80;99.90;;;;;;5046061;28;20509;-35
2022/09/19 02:20:37;;;;;;;10.30;1.58;;;10.90;99.90;;;;;;5046008;28;20025;-46
2022/09/19 02:23:36;;;;;;;6.70;1.30;;;10.90;99.90;;;;;;5044800;28;20123;-37
2022/09/19 02:26:06;;;;;;;4.47;1.33;;;10.90;99.90;;;;;;5041668;28;20496;-35
2022/09/19 02:28:39;;;;;;;10.60;1.63;;;10.90;99.90;;;;;;5045608;28;20021;-35
2022/09/19 02:31:06;;;;;;;5.47;1.17;;;10.90;99.90;;;;;;5046932;28;20082;-36
2022/09/19 02:33:34;;;;;;;6.30;1.55;;;10.90;99.90;;;;;;5045937;28;20537;-35
2022/09/19 02:36:26;;;;;;;5.00;1.20;;;10.90;99.90;;;;;;5046468;28;20024;-35
2022/09/19 02:39:00;;;;;;;8.35;1.60;;;11.00;99.90;;;;;;5045719;28;20037;-35
2022/09/19 02:41:45;;;;;;;10.95;2.33;;;10.90;99.90;;;;;;5044796;28;20488;-34
2022/09/19 02:44:21;;;;;;;5.88;1.15;;;10.90;99.90;;;;;;5045271;28;20017;-34
2022/09/19 02:47:24;;;;;;;5.88;1.33;;;10.90;99.90;;;;;;5046007;28;20123;-35
2022/09/19 02:49:58;;;;;;;7.15;1.33;;;10.90;99.90;;;;;;5042002;28;20521;-35
2022/09/19 02:52:29;;;;;;;8.57;1.42;;;11.00;99.90;;;;;;5045169;28;20384;-35
2022/09/19 02:55:02;;;;;;;8.82;1.80;;;11.00;99.90;;;;;;5045502;28;20116;-35
2022/09/19 02:57:30;;;;;;;7.90;1.70;;;11.10;99.90;;;;;;5045731;28;20021;-35
2022/09/19 02:59:59;;;;;;;9.30;0.98;;;11.10;99.90;;;;;;5045338;28;20087;-34
2022/09/19 03:02:33;;;;;;;6.85;1.33;;;11.10;99.90;;;;;;5044481;28;20112;-34
2022/09/19 03:05:08;;;;;;;7.32;1.20;;;11.20;99.90;;;;;;5045717;28;20060;-35
2022/09/19 03:07:39;;;;;;;8.38;1.10;;;11.20;99.90;;;;;;5045595;28;20496;-34
2022/09/19 03:10:10;;;;;;;6.28;1.40;;;11.30;99.90;;;;;;5045066;28;20106;-35
2022/09/19 03:12:51;;;;;;;9.05;1.40;;;11.30;99.90;;;;;;5045399;28;20107;-35
2022/09/19 03:15:36;;;;;;;6.65;1.30;;;11.40;99.90;;;;;;5044826;28;20037;-36
2022/09/19 03:18:09;;;;;;;5.75;1.30;;;11.40;99.90;;;;;;5045286;28;20078;-34
2022/09/19 03:20:37;;;;;;;7.80;1.40;;;11.40;99.90;;;;;;5045297;28;20025;-35
2022/09/19 03:23:04;;;;;;;7.03;1.58;;;11.40;99.90;;;;;;5044948;28;20021;-34
2022/09/19 03:25:30;;;;;;;7.25;1.52;;;11.40;99.90;;;;;;5044713;28;20071;-34
2022/09/19 03:27:56;;;;;;;8.73;1.50;;;11.40;99.90;;;;;;5044862;28;20106;-35
2022/09/19 03:30:22;;;;;;;4.97;1.00;;;11.40;99.90;;;;;;5044020;28;20501;-36
2022/09/19 03:32:48;;;;;;;7.07;1.55;;;11.40;99.90;;;;;;5045801;28;20025;-36
2022/09/19 03:35:14;;;;;;;7.68;1.77;;;11.40;99.90;;;;;;5044674;28;20373;-36
2022/09/19 03:37:40;;;;;;;6.32;1.20;;;11.40;99.90;;;;;;5044614;28;20021;-33
2022/09/19 03:40:06;;;;;;;7.72;1.45;;;11.30;99.90;;;;;;5044355;28;20029;-34
2022/09/19 03:42:34;;;;;;;11.77;1.60;;;11.30;99.90;;;;;;5044952;28;20624;-35
2022/09/19 03:45:00;;;;;;;8.05;1.95;;;11.30;99.90;;;;;;5044296;28;20029;-34
2022/09/19 03:47:26;;;;;;;8.40;1.67;;;11.30;99.90;;;;;;5044309;28;20494;-34
2022/09/19 03:49:52;;;;;;;10.65;2.10;;;11.20;99.90;;;;;;5045141;28;20033;-35
2022/09/19 03:52:19;;;;;;;6.13;1.33;;;11.20;99.90;;;;;;5043722;28;20025;-36
2022/09/19 03:54:44;;;;;;;11.98;1.80;;;11.20;99.90;;;;;;5045012;28;20526;-35
2022/09/19 03:57:14;;;;;;;8.07;1.20;;;11.20;99.90;;;;;;5044240;28;20023;-35
2022/09/19 03:59:41;;;;;;;9.07;2.15;;;11.20;99.90;;;;;;5044072;28;20049;-36
2022/09/19 04:02:07;;;;;;;5.82;1.40;;;11.10;99.90;;;;;;5044413;28;20055;-36
2022/09/19 04:04:33;;;;;;;8.07;1.70;;;11.10;99.90;;;;;;5044246;28;20132;-35
2022/09/19 04:07:01;;;;;;;7.32;1.75;;;11.10;99.90;;;;;;5043693;28;20824;-35
2022/09/19 04:09:27;;;;;;;8.60;1.50;;;11.10;99.90;;;;;;5044449;28;20025;-35
2022/09/19 04:11:55;;;;;;;4.57;1.48;;;11.10;99.90;;;;;;5044285;28;20050;-36
2022/09/19 04:14:20;;;;;;;7.95;1.35;;;11.10;99.90;;;;;;5043406;28;20029;-34
2022/09/19 04:16:46;;;;;;;10.95;1.55;;;11.20;99.90;;;;;;5044796;28;20067;-33
2022/09/19 04:19:12;;;;;;;7.45;2.20;;;11.20;99.90;;;;;;5043776;28;20036;-34
2022/09/19 04:21:44;;;;;;;5.78;1.38;;;11.30;99.90;;;;;;5044736;28;20036;-34
2022/09/19 04:24:09;;;;;;;8.82;1.95;;;11.30;99.90;;;;;;5044310;28;20040;-34
2022/09/19 04:26:36;;;;;;;6.60;1.17;;;11.40;99.90;;;;;;5043858;28;20028;-34
2022/09/19 04:29:02;;;;;;;7.93;1.02;;;11.40;99.90;;;;;;5044120;28;20033;-33
2022/09/19 04:31:37;;;;;;;4.03;1.13;;;11.40;99.90;;;;;;5044227;28;20029;-35
2022/09/19 04:34:03;;;;;;;8.07;1.48;;;11.50;99.90;;;;;;5043220;28;20183;-34
2022/09/19 04:36:31;;;;;;;6.22;1.55;;;11.50;99.90;;;;;;5043708;28;20116;-34
2022/09/19 04:38:57;;;;;;;6.95;1.05;;;11.50;99.90;;;;;;5044431;28;20485;-34
2022/09/19 04:41:22;;;;;;;6.30;1.45;;;11.60;99.90;;;;;;5042960;28;20032;-35
2022/09/19 04:43:50;;;;;;;9.15;1.35;;;11.60;99.90;;;;;;5044565;28;20033;-33
2022/09/19 04:46:21;;;;;;;6.28;1.10;;;11.60;99.90;;;;;;5024978;28;20112;-35
2022/09/19 04:48:47;;;;;;;5.82;1.50;;;11.60;99.90;;;;;;5038824;28;20024;-35
2022/09/19 04:51:12;;;;;;;4.50;0.82;;;11.70;99.90;;;;;;5043906;28;20542;-36
2022/09/19 04:53:38;;;;;;;6.82;1.70;;;11.80;99.90;;;;;;5043781;28;20118;-37
2022/09/19 04:56:04;;;;;;;7.47;1.50;;;11.80;99.90;;;;;;5044177;28;20431;-35
2022/09/19 04:58:30;;;;;;;9.10;1.83;;;11.80;99.90;;;;;;5043522;28;20053;-35
2022/09/19 05:00:56;;;;;;;5.90;0.90;;;11.80;99.90;;;;;;5044040;28;20033;-35
2022/09/19 05:03:25;;;;;;;8.35;1.98;;;11.80;99.90;;;;;;5043388;28;20056;-35
2022/09/19 05:05:51;;;;;;;6.35;1.20;;;11.80;99.90;;;;;;5043771;28;20434;-35
2022/09/19 05:08:25;;;;;;;7.65;1.60;;;11.80;99.90;;;;;;5043207;28;20453;-35
2022/09/19 05:10:54;;;;;;;5.78;1.20;;;11.70;99.90;;;;;;5034218;28;20070;-35
2022/09/19 05:13:23;;;;;;;6.85;1.20;;;11.70;99.90;;;;;;5043456;28;20484;-35
2022/09/19 05:15:51;;;;;;;5.75;1.10;;;11.70;99.90;;;;;;5047321;28;20097;-34
2022/09/19 05:18:21;;;;;;;7.38;1.27;;;11.70;99.90;;;;;;5046739;28;20107;-35
2022/09/19 05:20:48;;;;;;;7.72;1.23;;;11.70;99.90;;;;;;5048255;28;20068;-35
2022/09/19 05:23:14;;;;;;;7.07;1.30;;;11.60;99.90;;;;;;5046298;28;20481;-35
2022/09/19 05:25:40;;;;;;;7.85;1.30;;;11.60;99.90;;;;;;5048216;28;20052;-35
2022/09/19 05:28:06;;;;;;;7.25;1.95;;;11.70;99.90;;;;;;5047717;28;20040;-35
2022/09/19 05:30:38;;;;;;;7.70;1.30;;;11.60;99.90;;;;;;5046020;28;20460;-34
2022/09/19 05:33:04;;;;;;;3.92;0.93;;;11.70;99.90;;;;;;5048453;28;20388;-34
2022/09/19 05:35:33;;;;;;;6.43;1.35;;;11.70;99.90;;;;;;5046743;28;20056;-34
2022/09/19 05:37:59;;;;;;;5.00;1.05;;;11.70;99.90;;;;;;5027869;28;20028;-34
2022/09/19 05:40:25;;;;;;;3.72;0.90;;;11.60;99.90;;;;;;5041794;28;20037;-35
2022/09/19 05:42:53;;;;;;;4.63;1.08;;;11.60;99.90;;;;;;5047414;28;20025;-34
2022/09/19 05:45:20;;;;;;;8.32;1.30;;;11.60;99.90;;;;;;5046257;28;20071;-35
2022/09/19 05:47:46;;;;;;;4.05;1.20;;;11.70;99.90;;;;;;5047920;28;20033;-35
2022/09/19 05:50:13;;;;;;;4.85;1.20;;;11.80;99.90;;;;;;5046934;28;20091;-35
2022/09/19 05:55:27;;;;;;;4.50;0.90;;;11.80;99.90;;;;;;5045276;28;20388;-35
2022/09/19 05:57:57;;;;;;;6.60;1.35;;;11.90;99.90;;;;;;5044355;28;20052;-36
2022/09/19 06:00:25;;;;;;;6.43;1.17;;;12.00;99.90;;;;;;5044956;28;20040;-35
2022/09/19 06:03:00;;;;;;;3.80;1.05;;;12.00;99.90;;;;;;5046732;28;20524;-34
2022/09/19 06:05:27;;;;;;;5.45;1.30;;;12.00;99.90;;;;;;5044892;28;20029;-34
2022/09/19 06:07:56;;;;;;;5.43;1.27;;;12.10;99.90;;;;;;5045763;28;20021;-34
2022/09/19 06:10:23;;;;;;;5.10;1.25;;;12.10;99.90;;;;;;5046115;28;20476;-34
2022/09/19 06:12:49;;;;;;;5.10;1.27;;;12.10;99.90;;;;;;5045189;28;20040;-38
2022/09/19 06:15:15;;;;;;;4.78;1.00;;;12.10;99.90;;;;;;5045751;28;20025;-35
2022/09/19 06:17:41;;;;;;;7.40;1.40;;;12.10;99.90;;;;;;5045587;28;20021;-35
2022/09/19 06:20:08;;;;;;;6.03;1.45;;;12.10;99.90;;;;;;5044959;28;20472;-35
2022/09/19 06:22:34;;;;;;;8.05;1.20;;;12.10;99.90;;;;;;5045735;28;20017;-35
2022/09/19 06:25:00;;;;;;;4.90;1.20;;;12.00;99.90;;;;;;5045752;28;20104;-35
2022/09/19 06:27:27;;;;;;;6.57;1.50;;;12.00;99.90;;;;;;5043693;28;20029;-36
2022/09/19 06:29:53;;;;;;;4.78;1.48;;;12.10;99.90;;;;;;5045926;28;20033;-36
2022/09/19 06:32:20;;;;;;;3.05;1.20;;;12.00;99.90;;;;;;5044388;28;20025;-35
2022/09/19 06:34:45;;;;;;;6.13;1.30;;;12.00;99.90;;;;;;5045135;28;20056;-35
2022/09/19 06:37:12;;;;;;;6.18;1.33;;;12.00;99.90;;;;;;5044294;28;20540;-35
2022/09/19 06:39:37;;;;;;;3.92;1.10;;;12.00;99.90;;;;;;5045244;28;20040;-34
2022/09/19 06:42:03;;;;;;;7.22;1.38;;;12.00;99.90;;;;;;5043938;28;20033;-35
2022/09/19 06:44:30;;;;;;;7.85;1.55;;;12.00;99.90;;;;;;5045554;28;20060;-35
2022/09/19 06:46:56;;;;;;;6.35;1.33;;;12.00;99.90;;;;;;5044113;28;20041;-34
2022/09/19 06:49:21;;;;;;;5.72;1.50;;;12.00;99.90;;;;;;5044660;28;20020;-34
2022/09/19 06:51:47;;;;;;;7.35;1.27;;;11.90;99.90;;;;;;5045307;28;20020;-34
2022/09/19 06:54:12;;;;;;;5.80;1.60;;;11.90;99.90;;;;;;5033779;28;20028;-34
2022/09/19 06:56:40;;;;;;;10.18;1.50;;;11.90;99.90;;;;;;5045690;28;20021;-36
2022/09/19 06:59:06;;;;;;;5.35;1.00;;;11.90;99.90;;;;;;5045112;28;20055;-34
2022/09/19 07:01:32;;;;;;;7.28;1.33;;;12.00;99.90;;;;;;5044470;28;20032;-35
2022/09/19 07:03:58;;;;;;;5.95;1.45;;;12.00;99.90;;;;;;5046012;28;20021;-34
2022/09/19 07:06:23;;;;;;;6.43;1.25;;;12.10;99.90;;;;;;5045354;28;20028;-34
2022/09/19 07:08:49;;;;;;;5.65;1.15;;;12.20;99.90;;;;;;5044014;28;20385;-34
2022/09/19 07:11:15;;;;;;;5.85;1.60;;;12.30;99.90;;;;;;5044912;28;20495;-35
2022/09/19 07:13:40;;;;;;;5.15;1.38;;;12.50;99.90;;;;;;5045524;28;20023;-35
2022/09/19 07:16:09;;;;;;;3.83;1.17;;;12.50;99.90;;;;;;5044515;28;20408;-35
2022/09/19 07:18:36;;;;;;;6.40;1.40;;;12.60;99.90;;;;;;5045288;28;20028;-35
2022/09/19 07:21:02;;;;;;;3.83;1.40;;;12.80;99.90;;;;;;5045611;28;20041;-34
2022/09/19 07:23:27;;;;;;;7.28;1.60;;;12.90;99.90;;;;;;5044165;28;20029;-35
2022/09/19 07:25:55;;;;;;;5.97;1.42;;;13.00;99.90;;;;;;5045748;28;20575;-35
2022/09/19 07:28:21;;;;;;;3.25;1.00;;;13.00;99.90;;;;;;5044997;28;20544;-34
2022/09/19 07:30:50;;;;;;;5.25;1.10;;;13.00;99.90;;;;;;5045207;28;20025;-35
2022/09/19 07:33:19;;;;;;;6.68;1.27;;;13.10;99.90;;;;;;5043830;28;20017;-35
2022/09/19 07:35:46;;;;;;;8.32;1.30;;;13.10;99.90;;;;;;5045738;28;20033;-35
2022/09/19 07:38:14;;;;;;;4.90;1.08;;;13.20;99.90;;;;;;5043537;28;20056;-34
2022/09/19 07:40:40;;;;;;;7.10;1.50;;;13.30;99.90;;;;;;5045120;28;20036;-45
2022/09/19 07:43:07;;;;;;;7.40;2.15;;;13.40;99.90;;;;;;5044436;28;20043;-37
2022/09/19 07:45:35;;;;;;;7.85;1.48;;;13.50;99.90;;;;;;5044517;28;20083;-36
2022/09/19 07:48:01;;;;;;;3.58;1.20;;;13.60;99.90;;;;;;5045094;28;20033;-35
2022/09/19 07:50:26;;;;;;;9.70;2.55;;;13.70;99.90;;;;;;5043879;28;20465;-35
2022/09/19 07:53:07;;;;;;;4.15;1.40;;;13.70;99.90;;;;;;5045299;28;20025;-35
2022/09/19 07:55:33;;;;;;;8.20;2.65;;;13.70;99.90;;;;;;5044630;28;20036;-35
2022/09/19 07:58:00;;;;;;;4.50;1.15;;;13.60;99.90;;;;;;5044041;28;20180;-36
2022/09/19 08:00:27;;;;;;;4.10;1.08;;;13.60;99.90;;;;;;5044003;28;20450;-35
2022/09/19 08:03:01;;;;;;;6.30;2.05;;;13.60;99.90;;;;;;5045855;28;20052;-35
2022/09/19 08:05:31;;;;;;;5.28;1.00;;;13.60;99.90;;;;;;5044020;28;20100;-36
2022/09/19 08:07:58;;;;;;;4.50;1.10;;;13.60;99.90;;;;;;5044637;28;20131;-35
2022/09/19 08:10:23;;;;;;;5.78;1.50;;;13.60;99.90;;;;;;5043677;28;20039;-35
2022/09/19 08:12:49;;;;;;;5.50;1.50;;;13.70;99.90;;;;;;5044287;28;20496;-35
2022/09/19 08:15:17;;;;;;;8.48;1.60;;;13.70;99.90;;;;;;5043702;28;20021;-35
2022/09/19 08:18:01;;;;;;;6.00;1.50;;;13.80;99.90;;;;;;5044269;28;20477;-34
2022/09/19 08:20:29;;;;;;;5.80;1.55;;;13.90;99.90;;;;;;5042744;28;20488;-35
2022/09/19 08:22:59;;;;;;;5.38;1.20;;;14.00;99.90;;;;;;5044384;28;20032;-34
2022/09/19 08:25:26;;;;;;;4.88;1.20;;;14.00;99.90;;;;;;5042775;28;20481;-35
2022/09/19 08:27:52;;;;;;;8.20;1.50;;;14.10;99.90;;;;;;5044383;28;20025;-34
2022/09/19 08:30:25;;;;;;;5.68;1.63;;;14.10;99.90;;;;;;5043212;28;20112;-35
2022/09/19 08:32:51;;;;;;;7.47;1.40;;;14.10;99.90;;;;;;5043324;28;20605;-34
2022/09/19 08:35:18;;;;;;;7.25;1.52;;;14.20;99.90;;;;;;5043639;28;20021;-35
2022/09/19 08:37:44;;;;;;;11.38;1.92;;;14.20;99.90;;;;;;5044695;28;20104;-35
2022/09/19 08:40:25;;;;;;;12.20;1.92;;;14.20;99.90;;;;;;5042993;28;20059;-34
2022/09/19 08:43:09;;;;;;;3.92;1.13;;;14.30;99.90;;;;;;5032463;28;20029;-35
2022/09/19 08:46:06;;;;;;;8.10;1.70;;;14.40;99.90;;;;;;5044492;28;20024;-35
2022/09/19 08:48:52;;;;;;;7.47;1.33;;;14.50;99.90;;;;;;5036656;28;20106;-36
2022/09/19 08:51:23;;;;;;;7.75;1.48;;;14.60;99.90;;;;;;5045680;28;20017;-35
2022/09/19 08:53:54;;;;;;;7.65;1.42;;;14.80;99.90;;;;;;5046681;28;20401;-35
2022/09/19 08:56:21;;;;;;;5.53;1.50;;;15.00;99.90;;;;;;5047219;28;20017;-37
2022/09/19 08:58:54;;;;;;;6.43;1.20;;;15.10;99.90;;;;;;5046957;28;20048;-35
2022/09/19 09:01:21;;;;;;;5.22;1.20;;;15.20;99.90;;;;;;5045472;28;20480;-35
2022/09/19 09:04:07;;;;;;;6.20;1.33;;;15.30;99.90;;;;;;5048197;28;20384;-35
2022/09/19 09:06:32;;;;;;;5.95;1.05;;;15.40;99.90;;;;;;5047948;28;20031;-36
2022/09/19 09:09:22;;;;;;;5.88;1.20;;;15.50;99.90;;;;;;5046847;28;20029;-35
2022/09/19 09:11:59;;;;;;;6.68;1.20;;;15.40;99.90;;;;;;5047727;28;20099;-36
2022/09/19 09:14:40;;;;;;;2.47;0.90;;;15.50;99.90;;;;;;5047196;28;20104;-35
2022/09/19 09:17:30;;;;;;;4.20;1.30;;;15.50;99.90;;;;;;5047776;28;20036;-44
2022/09/19 09:20:27;;;;;;;6.18;1.15;;;15.50;99.90;;;;;;5047380;28;20551;-35
2022/09/19 09:23:12;;;;;;;7.78;1.10;;;15.30;99.90;;;;;;5047150;28;20045;-34
2022/09/19 09:25:45;;;;;;;4.47;1.00;;;15.20;99.90;;;;;;5038526;28;20033;-36
2022/09/19 09:28:32;;;;;;;4.55;1.00;;;15.20;99.90;;;;;;5046636;28;20029;-34
2022/09/19 09:31:12;;;;;;;5.93;1.65;;;15.10;99.90;;;;;;5035359;28;20040;-35
2022/09/19 09:33:48;;;;;;;6.28;1.25;;;14.90;99.90;;;;;;5045630;28;20056;-35
2022/09/19 09:36:22;;;;;;;5.10;1.15;;;14.80;99.90;;;;;;5046066;28;20074;-35
2022/09/19 09:38:54;;;;;;;6.78;1.48;;;14.70;99.90;;;;;;5047440;28;20067;-35
2022/09/19 09:41:56;;;;;;;6.68;1.17;;;14.60;99.90;;;;;;5047139;28;20036;-37
2022/09/19 09:44:44;;;;;;;7.07;1.33;;;14.70;99.90;;;;;;5044716;28;20060;-35
2022/09/19 09:47:28;;;;;;;4.82;1.13;;;14.80;99.90;;;;;;5046260;28;20485;-36
2022/09/19 09:50:12;;;;;;;4.97;1.42;;;14.90;99.90;;;;;;5043240;28;20063;-36
2022/09/19 09:52:50;;;;;;;2.97;0.80;;;15.00;99.90;;;;;;5031002;28;20017;-36
2022/09/19 09:56:16;;;;;;;4.35;1.48;;;15.20;99.90;;;;;;5035981;28;20388;-35
2022/09/19 09:58:56;;;;;;;3.35;0.90;;;15.30;99.90;;;;;;5023201;28;20045;-35
2022/09/19 10:04:33;;;;;;;5.15;1.05;;;15.60;99.90;;;;;;5044575;28;20036;-38
2022/09/19 10:07:28;;;;;;;3.42;0.80;;;15.70;99.90;;;;;;5027633;28;20034;-36
2022/09/19 10:10:03;;;;;;;2.50;0.65;;;15.80;99.90;;;;;;5045164;28;20095;-37
2022/09/19 10:12:52;;;;;;;2.90;0.65;;;15.80;99.90;;;;;;5045461;28;20040;-36
2022/09/19 10:15:21;;;;;;;2.30;0.60;;;15.90;99.90;;;;;;5045817;28;20021;-34
2022/09/19 10:17:53;;;;;;;3.58;0.80;;;15.80;99.90;;;;;;5045853;28;20021;-36
2022/09/19 10:20:25;;;;;;;3.85;0.63;;;15.70;99.90;;;;;;5045720;28;20159;-38
2022/09/19 10:22:51;;;;;;;3.53;0.82;;;15.60;99.90;;;;;;5047218;28;20021;-36
2022/09/19 10:25:19;;;;;;;5.07;1.10;;;15.50;99.90;;;;;;5045751;28;20048;-34
2022/09/19 10:27:49;;;;;;;6.03;0.90;;;15.60;99.90;;;;;;5046630;28;20029;-36
2022/09/19 10:30:21;;;;;;;4.20;1.00;;;15.60;99.90;;;;;;5046384;28;20029;-34
2022/09/19 10:32:50;;;;;;;4.00;1.00;;;15.90;99.90;;;;;;5045976;28;20078;-35
2022/09/19 10:35:25;;;;;;;4.13;1.20;;;16.00;99.90;;;;;;5045541;28;20033;-35
2022/09/19 10:37:59;;;;;;;3.63;0.80;;;16.10;99.90;;;;;;5046470;28;20041;-36
2022/09/19 10:40:26;;;;;;;2.30;0.60;;;16.20;99.90;;;;;;5045247;28;20397;-35
2022/09/19 10:42:53;;;;;;;1.42;0.40;;;16.10;99.90;;;;;;5046554;28;20025;-36
2022/09/19 10:45:33;;;;;;;1.92;0.60;;;16.00;99.90;;;;;;5045421;28;20025;-35
2022/09/19 10:48:08;;;;;;;3.13;0.57;;;15.90;99.90;;;;;;5045527;28;20106;-36
2022/09/19 10:50:42;;;;;;;0.60;0.40;;;15.80;99.90;;;;;;5046098;28;20029;-36
2022/09/19 10:53:19;;;;;;;1.95;0.43;;;15.70;99.90;;;;;;5044791;28;20519;-35
2022/09/19 10:55:47;;;;;;;3.15;0.80;;;15.70;99.90;;;;;;5046351;28;20040;-36
2022/09/19 10:58:18;;;;;;;2.63;0.60;;;15.70;99.90;;;;;;5044986;28;20499;-36
2022/09/19 11:00:59;;;;;;;2.85;1.00;;;15.70;99.90;;;;;;5045133;28;20048;-36
2022/09/19 11:03:36;;;;;;;1.98;0.60;;;15.60;99.90;;;;;;5045568;28;20065;-35
2022/09/19 11:06:13;;;;;;;1.85;0.50;;;15.50;99.90;;;;;;5045556;28;20452;-36
2022/09/19 11:08:51;;;;;;;3.92;1.00;;;15.50;99.90;;;;;;5044884;28;20021;-36
2022/09/19 11:11:25;;;;;;;3.28;0.85;;;15.40;99.90;;;;;;5045066;28;20722;-36
2022/09/19 11:14:07;;;;;;;1.25;0.60;;;15.30;99.90;;;;;;5045669;28;20681;-34
2022/09/19 11:17:12;;;;;;;3.65;0.70;;;15.30;99.90;;;;;;5045303;28;20071;-35
2022/09/19 11:19:58;;;;;;;2.90;0.90;;;15.30;99.90;;;;;;5024793;28;20390;-35
2022/09/19 11:22:50;;;;;;;2.40;0.60;;;15.40;99.90;;;;;;5044030;28;20044;-35
2022/09/19 11:25:29;;;;;;;3.65;0.82;;;15.40;99.90;;;;;;5045050;28;20090;-35
2022/09/19 11:28:28;;;;;;;3.28;0.70;;;15.50;99.90;;;;;;5041705;28;20033;-36
2022/09/19 11:31:05;;;;;;;2.25;0.57;;;15.50;99.90;;;;;;5045477;28;20040;-35
2022/09/19 11:33:52;;;;;;;2.60;0.60;;;15.50;99.90;;;;;;5044730;28;20111;-36
2022/09/19 11:36:47;;;;;;;3.20;0.70;;;15.60;99.90;;;;;;5044430;28;20112;-35
2022/09/19 11:39:33;;;;;;;1.42;0.60;;;15.70;99.90;;;;;;5044685;28;20032;-35
2022/09/19 11:42:17;;;;;;;3.05;0.70;;;15.90;99.90;;;;;;5044443;28;20029;-35
2022/09/19 11:45:08;;;;;;;2.83;0.65;;;16.10;99.90;;;;;;5046025;28;20020;-35
2022/09/19 11:47:50;;;;;;;4.57;1.00;;;16.20;99.90;;;;;;5045059;28;20047;-35
2022/09/19 11:50:43;;;;;;;3.08;0.80;;;16.30;99.90;;;;;;5043791;28;20025;-36
2022/09/19 11:53:09;;;;;;;2.63;0.70;;;16.30;99.90;;;;;;5044193;28;20029;-37
2022/09/19 11:55:43;;;;;;;4.40;1.55;;;16.20;99.90;;;;;;5045509;28;20350;-40
2022/09/19 11:58:18;;;;;;;3.22;0.88;;;16.30;99.90;;;;;;5043668;28;20516;-35
2022/09/19 12:01:12;;;;;;;2.08;0.63;;;16.30;98.80;;;;;;5025554;28;20030;-36
2022/09/19 12:04:15;;;;;;;3.45;0.80;;;16.40;99.00;;;;;;5042069;28;20436;-35
2022/09/19 12:06:50;;;;;;;2.05;0.60;;;16.50;97.70;;;;;;5043862;28;20757;-36
2022/09/19 12:09:31;;;;;;;3.13;0.63;;;16.50;98.10;;;;;;5044144;28;20556;-36
2022/09/19 12:12:06;;;;;;;2.53;0.80;;;16.60;97.80;;;;;;5044844;28;20361;-35
2022/09/19 12:14:41;;;;;;;2.78;0.80;;;16.70;97.50;;;;;;5041881;28;20063;-35
2022/09/19 12:17:32;;;;;;;1.80;0.70;;;16.90;96.60;;;;;;5044621;28;20033;-36
2022/09/19 12:20:29;;;;;;;1.48;0.50;;;17.00;96.10;;;;;;5044358;28;20023;-36
2022/09/19 12:26:09;;;;;;;3.67;0.90;;;17.10;95.40;;;;;;5044314;28;20028;-35
2022/09/19 12:28:47;;;;;;;1.77;0.88;;;17.00;95.90;;;;;;5044318;28;20025;-36
2022/09/19 12:31:17;;;;;;;3.30;0.88;;;16.80;96.90;;;;;;5044363;28;20048;-35
2022/09/19 12:33:55;;;;;;;3.35;0.90;;;16.70;97.20;;;;;;5044149;28;20040;-36
2022/09/19 12:36:24;;;;;;;2.38;0.60;;;16.60;97.20;;;;;;5044124;28;20029;-35
2022/09/19 12:39:10;;;;;;;3.30;0.75;;;16.50;97.80;;;;;;5043470;28;20099;-35
2022/09/19 12:41:58;;;;;;;2.65;0.60;;;16.50;97.60;;;;;;5044455;28;20086;-35
2022/09/19 12:44:47;;;;;;;2.92;0.70;;;16.60;97.70;;;;;;5043922;28;20024;-35
2022/09/19 12:47:36;;;;;;;2.67;0.75;;;16.70;97.70;;;;;;5042972;28;20036;-36
2022/09/19 12:50:08;;;;;;;3.58;0.80;;;16.80;96.70;;;;;;5044497;28;20130;-36
2022/09/19 12:52:41;;;;;;;3.05;0.80;;;16.90;96.70;;;;;;5044583;28;20032;-35
2022/09/19 12:55:20;;;;;;;2.38;0.73;;;17.00;96.50;;;;;;5043695;28;20562;-36
2022/09/19 12:57:52;;;;;;;2.05;0.50;;;17.10;96.90;;;;;;5023872;28;20437;-35
2022/09/19 13:00:20;;;;;;;3.08;0.65;;;17.20;96.80;;;;;;5037319;28;20029;-35
2022/09/19 13:02:54;;;;;;;2.83;0.50;;;17.20;97.20;;;;;;5043581;28;20447;-35
2022/09/19 13:05:40;;;;;;;1.35;0.70;;;17.30;97.50;;;;;;5042249;28;20036;-35
2022/09/19 13:08:34;;;;;;;1.90;0.50;;;17.50;97.60;;;;;;5022551;28;20038;-34
2022/09/19 13:11:26;;;;;;;2.10;0.60;;;17.50;97.60;;;;;;5042853;28;20136;-35
2022/09/19 13:14:08;;;;;;;5.05;0.90;;;17.70;97.60;;;;;;5040326;28;20049;-35
2022/09/19 13:23:29;;;;;;;1.95;0.73;;;17.80;96.60;;;;;;5044151;28;20488;-34
2022/09/19 13:25:35;;;;;;;1.67;0.60;;;17.30;94.60;;;;;;5044292;28;20462;-36
2022/09/19 13:28:23;;;;;;;2.35;0.90;;;17.10;95.30;;;;;;5043225;28;20613;-35
2022/09/19 13:31:05;;;;;;;2.50;0.77;;;16.90;95.40;;;;;;5043297;28;20504;-35
2022/09/19 13:33:48;;;;;;;4.28;0.65;;;16.70;94.80;;;;;;5023872;28;20087;-35